createdAt,value
2018-08-25T00:01:35.485Z,97548.49
2018-08-25T00:04:04.895Z,97550.02
2018-08-25T00:06:34.293Z,97561.50
2018-08-25T00:09:03.746Z,97558.53
2018-08-25T00:11:33.119Z,97557.75
2018-08-25T00:14:02.498Z,97541.71
2018-08-25T00:19:20.466Z,97539.83
2018-08-25T00:21:49.849Z,97535.15
2018-08-25T00:24:19.256Z,97535.74
2018-08-25T00:26:48.642Z,97525.71
2018-08-25T00:29:18.046Z,97530.20
2018-08-25T00:31:47.497Z,97525.20
2018-08-25T00:34:16.861Z,97526.58
2018-08-25T00:36:46.307Z,97523.13
2018-08-25T00:39:15.747Z,97518.82
2018-08-25T00:41:45.163Z,97513.47
2018-08-25T00:44:14.654Z,97513.22
2018-08-25T00:46:44.057Z,97517.42
2018-08-25T00:49:13.502Z,97514.20
2018-08-25T00:51:42.854Z,97519.44
2018-08-25T00:54:12.259Z,97513.02
2018-08-25T00:56:41.688Z,97512.59
2018-08-25T00:59:11.351Z,97509.48
2018-08-25T01:01:40.726Z,97509.59
2018-08-25T01:04:10.136Z,97507.75
2018-08-25T01:06:39.657Z,97502.91
2018-08-25T01:09:10.310Z,97498.45
2018-08-25T01:11:39.739Z,97497.77
2018-08-25T01:14:09.130Z,97500.66
2018-08-25T01:16:38.558Z,97501.08
2018-08-25T01:19:08.843Z,97493.56
2018-08-25T01:21:38.203Z,97494.80
2018-08-25T01:24:07.691Z,97490.34
2018-08-25T01:26:37.086Z,97488.36
2018-08-25T01:29:06.486Z,97492.90
2018-08-25T01:31:35.925Z,97487.77
2018-08-25T01:34:05.339Z,97487.61
2018-08-25T01:36:34.778Z,97483.27
2018-08-25T01:39:04.478Z,97468.95
2018-08-25T01:41:33.851Z,97484.14
2018-08-25T01:44:03.209Z,97484.05
2018-08-25T01:46:32.807Z,97470.49
2018-08-25T01:49:02.177Z,97472.95
2018-08-25T01:51:31.641Z,97473.72
2018-08-25T01:54:01.018Z,97470.19
2018-08-25T01:56:30.445Z,97461.37
2018-08-25T01:58:59.879Z,97468.37
2018-08-25T02:01:29.286Z,97461.06
2018-08-25T02:03:58.724Z,97464.92
2018-08-25T02:06:28.098Z,97456.76
2018-08-25T02:08:57.582Z,97458.02
2018-08-25T02:11:26.947Z,97463.64
2018-08-25T02:13:56.349Z,97462.34
2018-08-25T02:16:25.714Z,97454.27
2018-08-25T02:18:55.101Z,97448.26
2018-08-25T02:21:24.490Z,97452.73
2018-08-25T02:23:53.862Z,97450.95
2018-08-25T02:26:32.886Z,97446.55
2018-08-25T02:29:02.342Z,97438.41
2018-08-25T02:31:31.736Z,97436.04
2018-08-25T02:34:01.138Z,97437.66
2018-08-25T02:36:30.629Z,97429.42
2018-08-25T02:39:00.026Z,97435.36
2018-08-25T02:41:29.406Z,97434.40
2018-08-25T02:43:58.806Z,97437.86
2018-08-25T02:46:28.206Z,97430.61
2018-08-25T02:48:57.614Z,97435.30
2018-08-25T02:51:26.986Z,97435.16
2018-08-25T02:53:56.396Z,97430.98
2018-08-25T02:56:25.794Z,97422.21
2018-08-25T02:58:55.158Z,97414.34
2018-08-25T03:01:24.522Z,97408.23
2018-08-25T03:03:54.017Z,97408.85
2018-08-25T03:06:23.406Z,97405.20
2018-08-25T03:08:52.823Z,97405.17
2018-08-25T03:11:22.270Z,97406.67
2018-08-25T03:13:51.714Z,97402.38
2018-08-25T03:16:21.081Z,97400.70
2018-08-25T03:18:50.575Z,97399.27
2018-08-25T03:21:19.952Z,97402.92
2018-08-25T03:23:49.394Z,97395.80
2018-08-25T03:26:19.095Z,97398.61
2018-08-25T03:28:48.485Z,97393.36
2018-08-25T03:31:17.885Z,97395.61
2018-08-25T03:33:47.270Z,97393.87
2018-08-25T03:36:16.658Z,97388.91
2018-08-25T03:38:46.046Z,97381.27
2018-08-25T03:41:15.421Z,97372.31
2018-08-25T03:43:44.911Z,97374.77
2018-08-25T03:46:14.297Z,97370.48
2018-08-25T03:48:43.665Z,97365.25
2018-08-25T03:51:13.046Z,97360.80
2018-08-25T03:53:42.400Z,97363.69
2018-08-25T03:56:11.770Z,97355.00
2018-08-25T03:58:41.137Z,97352.85
2018-08-25T04:01:10.511Z,97348.51
2018-08-25T04:03:39.894Z,97355.79
2018-08-25T04:06:09.271Z,97352.02
2018-08-25T04:08:38.631Z,97357.77
2018-08-25T04:11:08.026Z,97362.77
2018-08-25T04:13:37.426Z,97363.34
2018-08-25T04:16:06.962Z,97360.88
2018-08-25T04:18:36.339Z,97358.91
2018-08-25T04:21:06.581Z,97356.92
2018-08-25T04:23:35.982Z,97350.45
2018-08-25T04:26:05.447Z,97349.58
2018-08-25T04:28:34.810Z,97344.01
2018-08-25T04:31:04.319Z,97338.68
2018-08-25T04:33:33.694Z,97341.02
2018-08-25T04:36:03.058Z,97338.77
2018-08-25T04:38:32.518Z,97341.37
2018-08-25T04:41:01.991Z,97344.92
2018-08-25T04:43:31.429Z,97348.05
2018-08-25T04:46:00.806Z,97351.91
2018-08-25T04:48:30.211Z,97349.94
2018-08-25T04:50:59.582Z,97344.06
2018-08-25T04:53:28.999Z,97344.56
2018-08-25T04:55:58.391Z,97347.57
2018-08-25T04:58:27.779Z,97352.12
2018-08-25T05:00:57.151Z,97353.84
2018-08-25T05:03:26.510Z,97353.06
2018-08-25T05:05:56.099Z,97352.12
2018-08-25T05:08:25.462Z,97356.53
2018-08-25T05:10:54.858Z,97350.95
2018-08-25T05:13:24.238Z,97347.48
2018-08-25T05:15:53.609Z,97344.91
2018-08-25T05:18:22.994Z,97347.26
2018-08-25T05:20:52.360Z,97339.77
2018-08-25T05:23:21.885Z,97339.72
2018-08-25T05:25:51.297Z,97347.81
2018-08-25T05:28:20.678Z,97345.30
2018-08-25T05:30:50.076Z,97343.59
2018-08-25T05:33:19.469Z,97338.05
2018-08-25T05:35:48.842Z,97332.20
2018-08-25T05:38:18.293Z,97329.18
2018-08-25T05:40:47.654Z,97332.72
2018-08-25T05:43:17.030Z,97326.75
2018-08-25T05:45:46.415Z,97336.13
2018-08-25T05:48:15.784Z,97334.45
2018-08-25T05:50:45.142Z,97333.92
2018-08-25T05:53:14.549Z,97329.36
2018-08-25T05:55:43.978Z,97333.31
2018-08-25T05:58:13.389Z,97333.55
2018-08-25T06:00:42.798Z,97323.13
2018-08-25T06:03:12.171Z,97325.30
2018-08-25T06:05:41.551Z,97317.28
2018-08-25T06:13:07.599Z,97306.68
2018-08-25T06:15:37.026Z,97311.33
2018-08-25T06:18:06.440Z,97318.66
2018-08-25T06:20:35.959Z,97316.73
2018-08-25T06:23:05.367Z,97319.00
2018-08-25T06:25:34.775Z,97319.03
2018-08-25T06:28:05.222Z,97317.45
2018-08-25T06:30:34.780Z,97316.84
2018-08-25T06:33:04.295Z,97313.33
2018-08-25T06:35:34.771Z,97318.75
2018-08-25T06:38:04.487Z,97318.67
2018-08-25T06:40:33.890Z,97310.97
2018-08-25T06:43:03.964Z,97306.97
2018-08-25T06:45:33.335Z,97310.93
2018-08-25T06:48:02.742Z,97311.22
2018-08-25T06:50:32.170Z,97309.73
2018-08-25T06:53:01.546Z,97310.56
2018-08-25T06:55:30.940Z,97314.62
2018-08-25T06:58:00.320Z,97312.34
2018-08-25T07:00:29.699Z,97314.63
2018-08-25T07:02:59.115Z,97314.91
2018-08-25T07:05:28.521Z,97311.00
2018-08-25T07:07:57.914Z,97312.77
2018-08-25T07:10:27.297Z,97316.05
2018-08-25T07:12:56.786Z,97320.14
2018-08-25T07:15:26.170Z,97320.67
2018-08-25T07:17:55.558Z,97318.94
2018-08-25T07:20:24.962Z,97317.11
2018-08-25T07:22:54.366Z,97333.17
2018-08-25T07:25:23.762Z,97352.55
2018-08-25T07:27:53.158Z,97375.62
2018-08-25T07:30:22.550Z,97382.15
2018-08-25T07:32:51.928Z,97380.02
2018-08-25T07:35:21.318Z,97368.58
2018-08-25T07:37:50.689Z,97377.41
2018-08-25T07:40:20.092Z,97383.02
2018-08-25T07:42:49.569Z,97378.14
2018-08-25T07:45:19.114Z,97393.94
2018-08-25T07:47:48.432Z,97396.95
2018-08-25T07:50:17.806Z,97398.34
2018-08-25T07:52:47.253Z,97396.39
2018-08-25T07:55:16.686Z,97393.94
2018-08-25T07:57:46.131Z,97388.67
2018-08-25T08:00:15.606Z,97383.34
2018-08-25T08:02:45.126Z,97379.58
2018-08-25T08:05:14.540Z,97383.48
2018-08-25T08:07:43.970Z,97382.06
2018-08-25T08:10:13.714Z,97383.98
2018-08-25T08:12:43.110Z,97385.81
2018-08-25T08:15:12.499Z,97388.63
2018-08-25T08:17:41.906Z,97393.95
2018-08-25T08:20:11.870Z,97401.29
2018-08-25T08:22:41.274Z,97391.02
2018-08-25T08:25:10.664Z,97395.36
2018-08-25T08:27:47.606Z,97399.41
2018-08-25T08:30:16.962Z,97405.70
2018-08-25T08:32:46.314Z,97389.91
2018-08-25T08:35:15.682Z,97398.08
2018-08-25T08:37:45.063Z,97409.92
2018-08-25T08:40:14.438Z,97405.75
2018-08-25T08:42:43.821Z,97408.34
2018-08-25T08:45:13.230Z,97399.09
2018-08-25T08:47:42.616Z,97394.25
2018-08-25T08:50:11.979Z,97404.16
2018-08-25T08:52:41.341Z,97408.18
2018-08-25T08:55:10.744Z,97410.55
2018-08-25T08:57:40.100Z,97411.81
2018-08-25T09:00:09.490Z,97420.91
2018-08-25T09:02:38.887Z,97418.25
2018-08-25T09:05:08.460Z,97424.84
2018-08-25T09:07:37.807Z,97416.78
2018-08-25T09:10:07.267Z,97416.27
2018-08-25T09:12:36.645Z,97418.09
2018-08-25T09:15:06.205Z,97422.71
2018-08-25T09:17:35.557Z,97407.73
2018-08-25T09:20:05.490Z,97415.30
2018-08-25T09:22:34.894Z,97418.97
2018-08-25T09:25:04.286Z,97420.84
2018-08-25T09:27:33.746Z,97420.89
2018-08-25T09:30:03.130Z,97414.55
2018-08-25T09:32:32.566Z,97410.55
2018-08-25T09:35:01.923Z,97403.98
2018-08-25T09:37:31.326Z,97405.11
2018-08-25T09:40:00.721Z,97398.67
2018-08-25T09:42:30.100Z,97415.31
2018-08-25T09:44:59.519Z,97404.73
2018-08-25T09:47:28.961Z,97407.80
2018-08-25T09:49:58.325Z,97403.64
2018-08-25T09:52:27.689Z,97411.49
2018-08-25T09:54:57.059Z,97417.31
2018-08-25T09:57:26.418Z,97402.65
2018-08-25T09:59:55.783Z,97409.66
2018-08-25T10:02:25.137Z,97410.33
2018-08-25T10:04:54.532Z,97404.95
2018-08-25T10:07:23.910Z,97408.78
2018-08-25T10:09:53.258Z,97407.92
2018-08-25T10:12:22.652Z,97409.47
2018-08-25T10:14:52.002Z,97412.37
2018-08-25T10:17:21.375Z,97430.95
2018-08-25T10:19:50.750Z,97422.53
2018-08-25T10:22:20.123Z,97426.54
2018-08-25T10:24:49.523Z,97431.89
2018-08-25T10:27:18.877Z,97425.50
2018-08-25T10:29:48.289Z,97428.53
2018-08-25T10:32:17.647Z,97425.56
2018-08-25T10:34:47.021Z,97430.16
2018-08-25T10:37:16.426Z,97414.95
2018-08-25T10:39:45.806Z,97430.33
2018-08-25T10:42:15.239Z,97434.59
2018-08-25T10:44:44.571Z,97434.30
2018-08-25T10:47:13.933Z,97436.70
2018-08-25T10:49:43.298Z,97431.86
2018-08-25T10:52:12.694Z,97449.26
2018-08-25T10:54:42.049Z,97453.69
2018-08-25T10:57:11.467Z,97450.95
2018-08-25T10:59:40.809Z,97463.02
2018-08-25T11:02:22.174Z,97461.56
2018-08-25T11:04:51.701Z,97463.71
2018-08-25T11:07:21.998Z,97465.59
2018-08-25T11:09:51.734Z,97464.78
2018-08-25T11:12:21.327Z,97470.30
2018-08-25T11:14:50.725Z,97477.52
2018-08-25T11:17:20.103Z,97481.25
2018-08-25T11:19:49.462Z,97473.60
2018-08-25T11:22:18.859Z,97476.53
2018-08-25T11:24:48.309Z,97477.92
2018-08-25T11:27:17.736Z,97481.31
2018-08-25T11:29:47.106Z,97470.72
2018-08-25T11:32:16.452Z,97470.98
2018-08-25T11:34:45.814Z,97457.22
2018-08-25T11:37:15.244Z,97456.73
2018-08-25T11:39:44.569Z,97463.19
2018-08-25T11:42:14.156Z,97463.86
2018-08-25T11:44:43.510Z,97464.98
2018-08-25T11:47:18.005Z,97465.27
2018-08-25T11:49:47.909Z,97466.80
2018-08-25T11:52:17.281Z,97471.34
2018-08-25T11:54:46.658Z,97471.41
2018-08-25T11:57:16.020Z,97473.20
2018-08-25T11:59:45.390Z,97465.27
2018-08-25T12:02:14.841Z,97465.97
2018-08-25T12:04:44.185Z,97466.72
2018-08-25T12:07:13.539Z,97464.33
2018-08-25T12:09:42.891Z,97466.55
2018-08-25T12:12:12.270Z,97462.10
2018-08-25T12:14:41.637Z,97466.13
2018-08-25T12:17:10.994Z,97467.11
2018-08-25T12:19:40.370Z,97466.86
2018-08-25T12:22:09.761Z,97463.11
2018-08-25T12:24:39.130Z,97461.72
2018-08-25T12:27:08.495Z,97459.93
2018-08-25T12:29:37.846Z,97444.12
2018-08-25T12:32:07.252Z,97457.92
2018-08-25T12:34:36.603Z,97459.34
2018-08-25T12:37:06.058Z,97461.08
2018-08-25T12:39:35.468Z,97459.80
2018-08-25T12:42:04.794Z,97451.48
2018-08-25T12:44:34.170Z,97449.87
2018-08-25T12:47:03.615Z,97458.34
2018-08-25T12:49:32.968Z,97449.41
2018-08-25T12:52:02.331Z,97461.68
2018-08-25T12:54:31.694Z,97458.17
2018-08-25T12:57:01.109Z,97464.77
2018-08-25T12:59:30.466Z,97471.76
2018-08-25T13:01:59.839Z,97472.65
2018-08-25T13:04:29.206Z,97472.01
2018-08-25T13:06:58.577Z,97482.72
2018-08-25T13:09:27.969Z,97474.77
2018-08-25T13:11:57.365Z,97480.63
2018-08-25T13:14:26.718Z,97482.29
2018-08-25T13:16:56.104Z,97480.00
2018-08-25T13:19:25.465Z,97479.23
2018-08-25T13:21:54.864Z,97470.91
2018-08-25T13:24:24.195Z,97470.90
2018-08-25T13:26:53.538Z,97480.83
2018-08-25T13:29:22.970Z,97476.91
2018-08-25T13:31:52.334Z,97477.23
2018-08-25T13:34:21.727Z,97476.94
2018-08-25T13:36:51.082Z,97482.87
2018-08-25T13:39:20.449Z,97474.93
2018-08-25T13:41:49.858Z,97475.86
2018-08-25T13:44:19.269Z,97483.05
2018-08-25T13:46:48.596Z,97482.33
2018-08-25T13:49:18.003Z,97481.80
2018-08-25T13:51:47.354Z,97486.22
2018-08-25T13:54:16.718Z,97501.22
2018-08-25T13:56:46.074Z,97494.97
2018-08-25T13:59:15.445Z,97510.12
2018-08-25T14:01:44.812Z,97506.84
2018-08-25T14:04:14.178Z,97508.70
2018-08-25T14:06:43.539Z,97514.72
2018-08-25T14:09:12.903Z,97513.77
2018-08-25T14:11:42.272Z,97512.69
2018-08-25T14:14:11.650Z,97518.00
2018-08-25T14:16:41.054Z,97526.38
2018-08-25T14:19:10.426Z,97530.17
2018-08-25T14:21:39.797Z,97526.79
2018-08-25T14:24:09.218Z,97521.73
2018-08-25T14:26:38.594Z,97517.88
2018-08-25T14:29:07.950Z,97520.27
2018-08-25T14:31:37.318Z,97524.00
2018-08-25T14:34:06.740Z,97514.56
2018-08-25T14:36:36.130Z,97527.25
2018-08-25T14:39:08.697Z,97526.78
2018-08-25T14:41:38.194Z,97521.58
2018-08-25T14:44:07.572Z,97526.64
2018-08-25T14:46:38.003Z,97539.84
2018-08-25T14:49:07.787Z,97538.73
2018-08-25T14:51:37.126Z,97537.58
2018-08-25T14:54:06.570Z,97535.75
2018-08-25T14:56:35.923Z,97547.00
2018-08-25T14:59:05.492Z,97544.88
2018-08-25T15:01:34.948Z,97561.09
2018-08-25T15:04:04.336Z,97556.84
2018-08-25T15:06:33.863Z,97559.73
2018-08-25T15:09:03.386Z,97560.26
2018-08-25T15:11:32.734Z,97564.86
2018-08-25T15:14:02.099Z,97562.91
2018-08-25T15:16:31.466Z,97564.06
2018-08-25T15:19:00.951Z,97566.03
2018-08-25T15:21:30.345Z,97566.07
2018-08-25T15:23:59.726Z,97562.20
2018-08-25T15:26:29.349Z,97557.87
2018-08-25T15:28:58.931Z,97567.08
2018-08-25T15:31:28.765Z,97568.61
2018-08-25T15:33:58.463Z,97561.97
2018-08-25T15:36:28.222Z,97570.79
2018-08-25T15:38:57.762Z,97581.61
2018-08-25T15:41:27.278Z,97589.84
2018-08-25T15:43:56.938Z,97600.34
2018-08-25T15:46:26.358Z,97618.94
2018-08-25T15:48:55.871Z,97638.25
2018-08-25T15:51:25.234Z,97648.72
2018-08-25T15:53:54.609Z,97661.06
2018-08-25T15:56:23.995Z,97657.23
2018-08-25T15:58:53.375Z,97657.36
2018-08-25T16:01:22.800Z,97653.73
2018-08-25T16:03:52.166Z,97655.41
2018-08-25T16:06:21.538Z,97655.72
2018-08-25T16:08:50.932Z,97644.11
2018-08-25T16:11:20.331Z,97640.55
2018-08-25T16:13:49.693Z,97641.14
2018-08-25T16:16:19.049Z,97633.73
2018-08-25T16:18:48.426Z,97632.48
2018-08-25T16:21:17.774Z,97631.48
2018-08-25T16:23:47.131Z,97615.52
2018-08-25T16:26:16.528Z,97620.42
2018-08-25T16:28:45.889Z,97620.15
2018-08-25T16:31:15.238Z,97626.45
2018-08-25T16:33:44.734Z,97628.88
2018-08-25T16:36:14.109Z,97645.19
2018-08-25T16:38:43.538Z,97651.21
2018-08-25T16:41:12.911Z,97652.27
2018-08-25T16:43:42.283Z,97661.55
2018-08-25T16:46:11.823Z,97661.19
2018-08-25T16:48:41.405Z,97661.00
2018-08-25T16:51:10.765Z,97661.55
2018-08-25T16:53:40.132Z,97653.57
2018-08-25T16:56:09.532Z,97650.56
2018-08-25T16:58:38.942Z,97654.44
2018-08-25T17:01:08.338Z,97657.28
2018-08-25T17:03:37.782Z,97660.58
2018-08-25T17:06:07.222Z,97662.77
2018-08-25T17:08:36.636Z,97668.28
2018-08-25T17:11:05.986Z,97670.23
2018-08-25T17:13:35.374Z,97667.39
2018-08-25T17:16:04.755Z,97670.20
2018-08-25T17:18:34.118Z,97674.25
2018-08-25T17:21:03.586Z,97677.19
2018-08-25T17:23:32.898Z,97676.19
2018-08-25T17:26:02.258Z,97678.62
2018-08-25T17:28:31.638Z,97682.28
2018-08-25T17:31:01.118Z,97689.66
2018-08-25T17:33:30.514Z,97694.86
2018-08-25T17:35:59.897Z,97690.13
2018-08-25T17:38:29.307Z,97697.61
2018-08-25T17:40:58.680Z,97695.16
2018-08-25T17:43:28.168Z,97700.02
2018-08-25T17:45:58.055Z,97693.41
2018-08-25T17:48:27.426Z,97695.91
2018-08-25T17:50:56.855Z,97698.05
2018-08-25T17:53:26.570Z,97708.06
2018-08-25T17:55:55.963Z,97711.36
2018-08-25T17:58:25.342Z,97706.27
2018-08-25T18:00:54.758Z,97715.16
2018-08-25T18:03:24.118Z,97710.98
2018-08-25T18:05:53.496Z,97704.62
2018-08-25T18:08:22.874Z,97714.09
2018-08-25T18:10:52.236Z,97718.45
2018-08-25T18:13:21.913Z,97720.78
2018-08-25T18:15:51.286Z,97728.83
2018-08-25T18:18:20.680Z,97733.48
2018-08-25T18:20:50.727Z,97735.30
2018-08-25T18:23:20.209Z,97735.88
2018-08-25T18:25:49.523Z,97742.46
2018-08-25T18:28:18.881Z,97747.78
2018-08-25T18:30:48.310Z,97748.95
2018-08-25T18:33:17.682Z,97752.59
2018-08-25T18:35:47.059Z,97754.05
2018-08-25T18:38:16.434Z,97758.98
2018-08-25T18:40:45.834Z,97766.96
2018-08-25T18:43:15.235Z,97765.75
2018-08-25T18:45:44.702Z,97771.68
2018-08-25T18:48:14.159Z,97776.38
2018-08-25T18:50:43.534Z,97783.81
2018-08-25T18:53:12.991Z,97785.05
2018-08-25T18:55:42.974Z,97787.84
2018-08-25T18:58:13.319Z,97793.44
2018-08-25T19:00:43.062Z,97809.70
2018-08-25T19:03:13.097Z,97808.66
2018-08-25T19:05:43.573Z,97811.48
2018-08-25T19:08:14.797Z,97810.58
2018-08-25T19:10:46.463Z,97823.94
2018-08-25T19:13:16.003Z,97829.97
2018-08-25T19:15:45.915Z,97835.95
2018-08-25T19:18:16.159Z,97832.45
2018-08-25T19:20:46.582Z,97830.86
2018-08-25T19:23:17.298Z,97827.97
2018-08-25T19:25:49.321Z,97842.08
2018-08-25T19:28:20.407Z,97833.16
2018-08-25T19:30:52.616Z,97843.08
2018-08-25T19:33:25.653Z,97850.98
2018-08-25T19:35:56.618Z,97851.20
2018-08-25T19:38:27.617Z,97853.86
2018-08-25T19:40:59.221Z,97854.80
2018-08-25T19:43:31.077Z,97858.08
2018-08-25T19:46:02.576Z,97859.72
2018-08-25T19:48:34.355Z,97855.47
2018-08-25T19:51:06.326Z,97854.30
2018-08-25T19:53:39.444Z,97852.84
2018-08-25T19:56:11.117Z,97852.03
2018-08-25T19:58:42.979Z,97857.52
2018-08-25T20:01:14.469Z,97855.70
2018-08-25T20:03:46.086Z,97852.58
2018-08-25T20:06:17.589Z,97853.15
2018-08-25T20:08:49.221Z,97856.12
2018-08-25T20:11:22.196Z,97851.73
2018-08-25T20:13:53.343Z,97854.26
2018-08-25T20:16:24.384Z,97856.44
2018-08-25T20:18:55.311Z,97860.10
2018-08-25T20:23:56.544Z,97871.51
2018-08-25T20:26:26.633Z,97868.98
2018-08-25T20:28:56.504Z,97875.48
2018-08-25T20:31:27.256Z,97874.07
2018-08-25T20:34:15.207Z,97875.30
2018-08-25T20:36:46.898Z,97876.95
2018-08-25T20:39:18.637Z,97875.04
2018-08-25T20:41:52.963Z,97879.02
2018-08-25T20:44:23.933Z,97880.53
2018-08-25T20:46:55.319Z,97886.41
2018-08-25T20:49:25.934Z,97893.04
2018-08-25T20:51:56.562Z,97893.81
2018-08-25T20:54:26.751Z,97894.62
2018-08-25T20:56:56.196Z,97897.13
2018-08-25T20:59:25.708Z,97903.75
2018-08-25T21:01:55.146Z,97900.84
2018-08-25T21:04:24.557Z,97899.45
2018-08-25T21:06:53.934Z,97898.68
2018-08-25T21:09:23.350Z,97903.53
2018-08-25T21:11:53.003Z,97905.78
2018-08-25T21:14:22.446Z,97903.31
2018-08-25T21:16:51.859Z,97906.40
2018-08-25T21:19:21.224Z,97911.56
2018-08-25T21:21:50.590Z,97913.25
2018-08-25T21:24:20.011Z,97911.59
2018-08-25T21:26:49.502Z,97906.48
2018-08-25T21:29:18.888Z,97900.19
2018-08-25T21:31:48.370Z,97903.61
2018-08-25T21:34:17.794Z,97913.19
2018-08-25T21:36:47.402Z,97916.28
2018-08-25T21:39:16.861Z,97915.48
2018-08-25T21:41:46.235Z,97915.78
2018-08-25T21:44:15.653Z,97916.20
2018-08-25T21:46:45.069Z,97922.52
2018-08-25T21:49:14.555Z,97921.28
2018-08-25T21:51:43.938Z,97923.89
2018-08-25T21:54:13.436Z,97927.70
2018-08-25T21:56:42.801Z,97932.41
2018-08-25T21:59:12.187Z,97912.92
2018-08-25T22:01:42.635Z,97934.22
2018-08-25T22:04:12.858Z,97934.25
2018-08-25T22:06:42.275Z,97932.09
2018-08-25T22:09:12.574Z,97940.23
2018-08-25T22:11:41.959Z,97938.55
2018-08-25T22:14:11.338Z,97941.95
2018-08-25T22:16:40.778Z,97943.20
2018-08-25T22:19:10.175Z,97942.35
2018-08-25T22:21:39.537Z,97937.72
2018-08-25T22:24:08.918Z,97939.38
2018-08-25T22:26:38.289Z,97941.06
2018-08-25T22:29:07.726Z,97936.00
2018-08-25T22:31:37.136Z,97937.27
2018-08-25T22:34:06.681Z,97936.84
2018-08-25T22:36:36.238Z,97933.87
2018-08-25T22:39:09.126Z,97934.34
2018-08-25T22:41:38.621Z,97930.52
2018-08-25T22:44:08.633Z,97935.64
2018-08-25T22:46:38.221Z,97933.95
2018-08-25T22:49:08.337Z,97941.65
2018-08-25T22:51:37.905Z,97937.86
2018-08-25T22:54:07.469Z,97946.90
2018-08-25T22:56:36.845Z,97941.34
2018-08-25T22:59:06.255Z,97936.20
2018-08-25T23:01:35.618Z,97942.20
2018-08-25T23:04:05.074Z,97945.18
2018-08-25T23:06:34.421Z,97949.02
2018-08-25T23:09:04.498Z,97943.09
2018-08-25T23:11:33.894Z,97949.07
2018-08-25T23:14:03.266Z,97948.64
2018-08-25T23:16:32.761Z,97948.64
2018-08-25T23:19:02.226Z,97944.81
2018-08-25T23:21:31.625Z,97949.07
2018-08-25T23:24:01.310Z,97946.09
2018-08-25T23:26:30.665Z,97950.37
2018-08-25T23:29:00.200Z,97951.66
2018-08-25T23:31:29.671Z,97955.94
2018-08-25T23:33:59.206Z,97956.38
2018-08-25T23:36:28.621Z,97956.81
2018-08-25T23:38:57.993Z,97958.06
2018-08-25T23:41:27.386Z,97963.21
2018-08-25T23:43:56.801Z,97961.06
2018-08-25T23:46:26.206Z,97970.87
2018-08-25T23:48:55.707Z,97967.05
2018-08-25T23:51:25.083Z,97968.74
2018-08-25T23:53:54.561Z,97974.71
2018-08-25T23:56:23.969Z,97973.00
2018-08-25T23:58:53.345Z,97973.41
